Tiempo atmosférico en la estación meteorológica de Madridejos, Toledo (690 m.)



Fecha
DESCASC
Temp. máxima en grados centígrados (hora)
DESCASC
Temp. mínima en grados centígrados (hora)
DESCASC
Temp. media en grados centígrados
DESCASC
Racha de viento máxima en m/sg (hora)
DESCASC
Velocidad máxima media en intervalos de 10 minutos(hora)
DESCASC
Precipitaciones diarias en mm
DESCASC
Precipitaciones de 00:00 a 06:00 en mm
DESCASC
Precipitaciones de 06:00 a 12:00 en mm
DESCASC
Precipitaciones de 12:00 a 18:00 en mm
DESCASC
Precipitaciones de 18:00 a 24:00 en mm
DESCASC
03-12-2020 11.5 (14:50) -3 (08:20) 4.3 14.72 (23:50) 8.61 (23:30) 0 0 0 0 0
02-12-2020 11 (14:10) 0.9 (23:59) 5.9 11.39 (12:40) 6.11 (13:10) 0 0 0 0 0
01-12-2020 13.9 (15:20) 1.2 (08:50) 7.5 8.89 (15:10) 3.89 (16:10) 0 0 0 0 0
30-11-2020 14.1 (15:40) 3 (00:00) 8.6 10.56 (14:30) 7.22 (16:20) 0.2 0 0.2 0 0
29-11-2020 12.5 (15:10) 2 (00:00) 7.3 8.33 (13:50) 4.44 (13:40) -- 0.2 -- 0 0
28-11-2020 10.5 (12:00) 2.3 (00:00) 6.4 7.22 (12:30) 3.61 (10:50) 0 0 0 0 0
27-11-2020 10.1 (01:30) 6.5 (00:00) 8.3 13.06 (13:40) 8.89 (13:40) 10.2 1.2 5.4 3.6 0
26-11-2020 13.2 (16:40) 7.6 (00:00) 10.4 18.33 (13:00) 11.94 (14:40) 1.6 0.2 1 0.4 0
25-11-2020 14.7 (15:40) 3.7 (00:00) 9.2 11.39 (14:00) 5 (14:00) 0.2 0 0 0 0.2
24-11-2020 15.7 (16:20) -0.1 (00:00) 7.8 8.61 (17:20) 4.17 (12:40) 0 0 0 0 0
23-11-2020 15.3 (15:40) -2.6 (-00:0) 6.4 6.39 (12:40) 4.17 (00:20) 0.2 0 0.2 0 0
22-11-2020 13.6 (16:00) -0.5 (-00:0) 6.6 6.39 (14:40) 3.61 (00:30) 0 0 0 0 0
21-11-2020 15.7 (15:30) 0.2 (00:00) 7.9 9.44 (14:50) 5 (14:50) 0 0 0 0 0
20-11-2020 17 (16:10) 4.3 (00:00) 10.7 12.22 (15:50) 6.67 (14:40) 0 0 0 0 0
19-11-2020 20 (15:50) 4.4 (00:00) 12.2 8.61 (14:00) 5 (14:00) 0.2 0.2 0 0 0
18-11-2020 18.8 (16:10) 3.6 (00:00) 11.2 6.39 (13:40) 3.89 (14:00) 0.2 0.2 0 0 0
17-11-2020 17.2 (16:20) 6.6 (00:00) 11.9 6.67 (16:30) 3.33 (16:40) 0.2 0.2 0 0 0
16-11-2020 19.5 (16:00) 9.4 (00:00) 14.4 8.33 (15:10) 4.72 (15:40) 0 0 0 0 0
15-11-2020 18.1 (17:10) 9.8 (00:00) 14 9.17 (12:20) 5.28 (11:40) 0 0 0 0 0
14-11-2020 13.9 (16:50) 8.7 (00:00) 11.3 6.11 (07:50) 2.78 (02:00) 2 0 0.8 1 0.2
13-11-2020 16.7 (15:10) 3.7 (00:00) 10.2 6.67 (10:40) 3.61 (11:10) 0.2 0 0.2 0 0
12-11-2020 15.8 (15:30) 3.3 (00:00) 9.6 9.72 (15:10) 5 (14:40) 0 0 0 0 0
11-11-2020 15.2 (16:40) 2.9 (00:00) 9 6.67 (11:30) 3.89 (13:40) 0.2 0 0.2 0 0
10-11-2020 15.6 (16:20) 3.6 (00:00) 9.6 6.39 (06:40) 2.78 (18:40) 0.2 0.2 0 0 0
09-11-2020 16.8 (16:20) 7.7 (00:00) 12.2 9.17 (15:10) 5 (16:40) 2.4 0.2 2.2 0 0
08-11-2020 16.7 (15:40) 4.3 (00:00) 10.5 -- (--) -- (--) 0 0 0 0 0
07-11-2020 16.5 (15:40) 8.5 (00:00) 12.5 -- (--) -- (--) 9.6 9.6 0 0 0
06-11-2020 18.6 (15:30) 11.6 (00:00) 15.1 25.83 (12:30) 12.5 (10:30) 0.4 0 0 0 0.4
05-11-2020 13.6 (17:00) 10.5 (00:00) 12.1 23.61 (09:20) 14.17 (09:20) 3.6 1 0.4 2.2 0

Gráficas

Temp. máximas Temp. mínimas Temp. medias Precipitaciones Rachas de viento máximas Velocidades máximas media en intervalos de 10 minutos

Datos horarios

Fecha y hora oficial Temperatura (ºC) Velocidad del viento (km/h) Dirección del viento Racha (km/h) Dirección de racha Precipitación (mm) Presión (hPa) Tendencia (hPa) Humedad (%)
2020-12-04 23:00:00 1.1 12 Oeste 17 Oeste 0 918.3 -- 84
2020-12-04 22:00:00 1.2 3 Oeste 18 Oeste 0 918 -- 82
2020-12-04 21:00:00 1.9 3 Sudoeste 19 Oeste 0 917.5 -- 81
2020-12-04 20:00:00 2.5 14 Oeste 31 Oeste 0 916.8 -- 77
2020-12-04 19:00:00 3.5 13 Oeste 19 Sudoeste 0 916.4 -- 75
2020-12-04 18:00:00 4.7 15 Oeste 35 Oeste 0 916.4 -- 69
2020-12-04 17:00:00 5.7 23 Oeste 42 Oeste 0 916 -- 63
2020-12-04 16:00:00 6.4 23 Oeste 46 Oeste 0 916.4 -- 62
2020-12-04 15:00:00 7.4 21 Sudoeste 40 Sudoeste 0 916.8 -- 64
2020-12-04 14:00:00 7 29 Oeste 47 Oeste 0 917.5 -- 64
2020-12-04 13:00:00 6.8 24 Oeste 50 Oeste 0 918.1 -- 68
2020-12-04 12:00:00 6.6 26 Oeste 57 Oeste 0 919.1 -- 77
2020-12-04 11:00:00 4.6 36 Oeste 56 Oeste 0.6 919.4 -- 82
2020-12-04 10:00:00 4.8 37 Oeste 62 Noroeste 1.2 919.3 -- 85
2020-12-04 09:00:00 6.5 22 Oeste 44 Oeste 0.2 918.4 -- 83
2020-12-04 08:00:00 7.2 24 Oeste 45 Oeste 0.6 918.1 -- 84
2020-12-04 07:00:00 7.1 28 Sudoeste 60 Sudoeste 0 918.2 -- 85
2020-12-04 06:00:00 7.2 30 Sudoeste 52 Sudoeste 0 918.8 -- 82
2020-12-04 05:00:00 7.3 27 Sudoeste 46 Sudoeste 0 919.9 -- 78
2020-12-04 04:00:00 6.8 30 Sudoeste 45 Sudoeste 0 921.5 -- 80
2020-12-04 03:00:00 6.3 23 Sudoeste 40 Sudoeste 0 922.2 -- 80
2020-12-04 02:00:00 6.3 27 Sudoeste 42 Sudoeste 0 923.1 -- 74
2020-12-04 01:00:00 6.1 19 Sudoeste 53 Oeste 0 924.3 -- 71
2020-12-04 00:00:00 6.3 28 Sudoeste 53 Oeste 0 924.7 -- 66
2020-12-03 23:00:00 6 24 Sudoeste 38 Sudoeste 0 925.6 -- 63
2020-12-03 22:00:00 5.4 13 Oeste 33 Sudoeste 0 926.9 -- 62
2020-12-03 21:00:00 5.6 22 Sudoeste 30 Sudoeste 0 927 -- 57
2020-12-03 20:00:00 6 13 Sudoeste 23 Oeste 0 927.7 -- 56
2020-12-03 19:00:00 6.8 14 Sudoeste 26 Sudoeste 0 927.8 -- 58
2020-12-03 18:00:00 8.3 17 Sudoeste 35 Sudoeste 0 928.2 -- 46
2020-12-03 17:00:00 10.3 14 Sudoeste 30 Sudoeste 0 928.6 -- 32
2020-12-03 16:00:00 11.3 19 Sudoeste 31 Sudoeste 0 929.2 -- 29
2020-12-03 15:00:00 11.3 17 Sudoeste 31 Sudoeste 0 930.2 -- 31
2020-12-03 14:00:00 10.7 12 Sudoeste 28 Sur 0 931 -- 36
2020-12-03 13:00:00 8.6 9 Oeste 24 Oeste 0 932.8 -- 42
2020-12-03 12:00:00 6.8 12 Sudoeste 21 Sudoeste 0 933.6 -- 55
2020-12-03 11:00:00 4.3 12 Sudoeste 19 Sudoeste 0 934.4 -- 67
2020-12-03 10:00:00 1.2 8 Sudoeste 13 Sudoeste 0 934.9 -- 80
2020-12-03 09:00:00 -2.1 7 Sudoeste 12 Sudoeste 0 934.9 -- 87
2020-12-03 08:00:00 -2.5 5 Oeste 9 Oeste 0 934.9 -- 84
2020-12-03 07:00:00 -1.4 6 Sudoeste 11 Sudoeste 0 934.2 -- 82
2020-12-03 06:00:00 -0.8 8 Sudoeste 13 Sudoeste 0 934.5 -- 80
2020-12-03 05:00:00 -1.2 7 Oeste 15 Noroeste 0 935.2 -- 80
2020-12-03 04:00:00 -1.6 10 Oeste 14 Noroeste 0 935.3 -- 82
2020-12-03 03:00:00 -1 6 Noroeste 17 Oeste 0 935.7 -- 81
2020-12-03 02:00:00 -0.5 5 Noroeste 17 Oeste 0 936.3 -- 79
2020-12-03 01:00:00 0.7 9 Oeste 13 Noroeste 0 936.8 -- 74
2020-12-03 00:00:00 1.2 9 Noroeste 15 Sudoeste 0 937.3 -- 76
2020-12-02 23:00:00 2.7 3 Sudoeste 28 Noroeste 0 937.2 -- 69
2020-12-02 22:00:00 4.1 14 Noroeste 31 Noroeste 0 937 -- 64
2020-12-02 21:00:00 2.9 9 Noroeste 20 Noroeste 0 936.7 -- 69
2020-12-02 20:00:00 4.4 12 Noroeste 23 Norte 0 936.3 -- 62
2020-12-02 19:00:00 5.1 10 Noroeste 19 Norte 0 936 -- 61
2020-12-02 18:00:00 7.1 4 Norte 30 Norte 0 935.8 -- 52
2020-12-02 17:00:00 8.8 12 Nordeste 33 Nordeste 0 935.4 -- 44
2020-12-02 16:00:00 9.9 16 Norte 36 Norte 0 935 -- 41
2020-12-02 15:00:00 9.8 18 Nordeste 37 Norte 0 934.9 -- 47
2020-12-02 14:00:00 10.9 17 Norte 41 Norte 0 935 -- 47
2020-12-02 13:00:00 10.5 21 Norte 41 Norte 0 935.4 -- 55
2020-12-02 12:00:00 10.4 13 Norte 30 Norte 0 935.8 -- 63
2020-12-02 11:00:00 9.1 13 Noroeste 21 Norte 0 935.9 -- 68
2020-12-02 10:00:00 6.8 6 Noroeste 22 Oeste 0 935.8 -- 78
2020-12-02 09:00:00 3.1 9 Oeste 23 Oeste 0 935.7 -- 80
2020-12-02 08:00:00 4.1 10 Oeste 23 Oeste 0 935.5 -- 76
2020-12-02 07:00:00 4.1 8 Oeste 23 Oeste 0 935.4 -- 79
2020-12-02 06:00:00 5.3 10 Oeste 24 Oeste 0 935.5 -- 79
2020-12-02 05:00:00 4.2 9 Oeste 22 Oeste 0 936 -- 80
2020-12-02 04:00:00 3.7 9 Oeste 21 Oeste 0 936.8 -- 79
2020-12-02 03:00:00 4.3 9 Oeste 23 Oeste 0 936.9 -- 76
2020-12-02 02:00:00 4.3 10 Oeste 23 Oeste 0 937.2 -- 78
2020-12-02 01:00:00 4.1 6 Noroeste 21 Oeste 0 937.8 -- 79
2020-12-02 00:00:00 5.1 8 Oeste 23 Oeste 0 938 -- 75
2020-12-01 23:00:00 5.3 8 Noroeste 22 Oeste 0 938.4 -- 75
2020-12-01 22:00:00 5.1 7 Noroeste 11 Noroeste 0 938.6 -- 77
2020-12-01 21:00:00 4.8 8 Noroeste 14 Oeste 0 938.4 -- 79
2020-12-01 20:00:00 6.3 9 Oeste 13 Norte 0 938.7 -- 77
2020-12-01 19:00:00 7.9 8 Noroeste 14 Noroeste 0 938.6 -- 72
2020-12-01 18:00:00 11.2 8 Noroeste 19 Norte 0 938.8 -- 63
2020-12-01 17:00:00 13.3 12 Noroeste 23 Noroeste 0 939 -- 55
2020-12-01 16:00:00 13.7 14 Noroeste 32 Nordeste 0 939.2 -- 49
2020-12-01 15:00:00 13.5 8 Norte 30 Nordeste 0 939.7 -- 48
2020-12-01 14:00:00 12.8 12 Norte 30 Nordeste 0 940.4 -- 51
2020-12-01 13:00:00 11.1 7 Noroeste 14 Norte 0 941.3 -- 80
2020-12-01 12:00:00 9.6 4 Noroeste 10 Noroeste 0 942.2 -- 86
2020-12-01 11:00:00 7.8 5 Oeste 20 Oeste 0 942.2 -- 92
2020-12-01 10:00:00 5.2 9 Oeste 20 Oeste 0 942 -- 94
2020-12-01 09:00:00 1.6 5 Oeste 17 Oeste 0 942.2 -- 92
2020-12-01 08:00:00 2.4 5 Noroeste 11 Norte 0 942.1 -- 92
2020-12-01 07:00:00 2 6 Noroeste 10 Sudoeste 0 941.7 -- 92
2020-12-01 06:00:00 2.5 7 Sudoeste 18 Oeste 0 941.6 -- 91
2020-12-01 05:00:00 3 3 Noroeste 18 Oeste 0 941.8 -- 90
2020-12-01 04:00:00 3.5 6 Oeste 18 Oeste 0 942 -- 90
2020-12-01 03:00:00 4.2 4 Sudoeste 18 Sudoeste 0 942.4 -- 89
2020-12-01 02:00:00 5 4 Noroeste 7 Norte 0 942.7 -- 88
2020-12-01 01:00:00 6.4 2 Oeste 23 Nordeste 0 943 -- 86
2020-12-01 00:00:00 7.4 12 Nordeste 26 Nordeste 0 942.4 -- 84
2020-11-30 23:00:00 7.6 12 Nordeste 21 Nordeste 0 942.1 -- 85
2020-11-30 22:00:00 7.5 10 Nordeste 14 Nordeste 0 941.9 -- 87
2020-11-30 21:00:00 8.6 12 Este 24 Este 0 941.4 -- 85
2020-11-30 20:00:00 9.2 11 Este 21 Este 0 941.3 -- 84
2020-11-30 19:00:00 9.7 9 Nordeste 16 Este 0 941.1 -- 83
2020-11-30 18:00:00 11 12 Este 35 Este 0 940.7 -- 78
2020-11-30 17:00:00 12.5 22 Este 37 Este 0 940.6 -- 73
2020-11-30 16:00:00 14 22 Este 38 Este 0 940 -- 69
2020-11-30 15:00:00 13.4 23 Este 38 Este 0 940.3 -- 70
2020-11-30 14:00:00 12.7 19 Este 34 Este 0 940.6 -- 73
2020-11-30 13:00:00 11.2 13 Este 31 Este 0 941.4 -- 79
2020-11-30 12:00:00 9.3 6 Nordeste 21 Nordeste 0.2 942 -- 86
2020-11-30 11:00:00 7 5 Noroeste 21 Oeste 0 941.9 -- 92
2020-11-30 10:00:00 6.2 7 Nordeste 21 Nordeste 0 941 -- 93
2020-11-30 09:00:00 4.5 7 Nordeste 22 Norte 0 940.8 -- 93
2020-11-30 08:00:00 4 8 Noroeste 12 Noroeste 0 940.4 -- 93
2020-11-30 07:00:00 3.7 6 Noroeste 21 Nordeste 0 940 -- 92
2020-11-30 06:00:00 3.8 3 Noroeste 18 Nordeste 0 939.5 -- 91
2020-11-30 05:00:00 4.6 6 Este 18 Este 0 939.3 -- 91
2020-11-30 04:00:00 3.5 12 Este 19 Este 0 939.4 -- 91
2020-11-30 03:00:00 3.6 5 Sur 17 Este 0 939.1 -- 90
2020-11-30 02:00:00 5.1 5 Este 18 Nordeste 0 939.1 -- 90
2020-11-30 01:00:00 5.1 3 Nordeste 16 Nordeste 0 939.2 -- 89
2020-11-30 00:00:00 5.3 4 Sudoeste 20 Este 0 939 -- 87
2020-11-29 23:00:00 5.7 4 Este 7 Nordeste 0 938.5 -- 86
2020-11-29 22:00:00 6.4 3 Nordeste 9 Nordeste 0 938.1 -- 83
2020-11-29 21:00:00 8.2 8 Nordeste 23 Este 0 937.5 -- 80
2020-11-29 20:00:00 9.3 6 Nordeste 9 Nordeste 0 937.2 -- 80
2020-11-29 19:00:00 10.4 5 Este 12 Sudeste 0 936.9 -- 76
2020-11-29 18:00:00 11.1 6 Este 12 Sur 0 936.5 -- 73
2020-11-29 17:00:00 11.7 5 Este 27 Este 0 936 -- 70
2020-11-29 16:00:00 12 7 Sudeste 28 Este 0 935.7 -- 68
2020-11-29 15:00:00 12.1 7 Sudeste 28 Este 0 935.8 -- 68
2020-11-29 14:00:00 10.5 14 Este 30 Este 0 935.9 -- 80
2020-11-29 13:00:00 8.3 9 Este 20 Este 0 936.3 -- 91
2020-11-29 12:00:00 6.9 6 Sudeste 21 Este 0 936.7 -- 93
2020-11-29 11:00:00 6 8 Sudeste 22 Sudeste -- 936.4 -- 93
2020-11-29 10:00:00 -- -- -- -- -- -- -- -- --
2020-11-29 09:00:00 3 6 Este 12 Sur 0 935 -- 93
2020-11-29 08:00:00 2.7 5 Sudeste 12 Sur 0 934.2 -- 93
2020-11-29 07:00:00 2.4 6 Este 13 Este 0 933.5 -- 92
2020-11-29 06:00:00 3.4 6 Este 17 Este 0 933.2 -- 92
2020-11-29 05:00:00 4 6 Sudeste 18 Este 0 932.6 -- 92
2020-11-29 04:00:00 4 5 Sudoeste 18 Sudoeste 0 933 -- 92
2020-11-29 03:00:00 4.7 6 Sudeste 18 Sudoeste 0 932.3 -- 91
2020-11-29 02:00:00 5.1 4 Sur 19 Sur 0.2 932.3 -- 91
2020-11-29 01:00:00 5.7 9 Sur 23 Sur 0 932.1 -- 91
2020-11-29 00:00:00 6.3 6 Sudeste 20 Este 0 931.6 -- 90
2020-11-28 23:00:00 7.1 7 Sudeste 19 Este 0 931.2 -- 88
2020-11-28 22:00:00 8 3 Sudeste 19 Este 0 930.8 -- 86
2020-11-28 21:00:00 8.5 3 Sudeste 17 Este 0 930.5 -- 83
2020-11-28 20:00:00 8.6 2 Sudoeste 7 Sudoeste 0 930 -- 84
2020-11-28 19:00:00 8.9 2 Sudeste 8 Oeste 0 929.1 -- 84
2020-11-28 18:00:00 9.2 4 Oeste 12 Norte 0 928.6 -- 81
2020-11-28 17:00:00 9.8 8 Noroeste 14 Norte 0 928.4 -- 78
2020-11-28 16:00:00 10.1 7 Oeste 14 Oeste 0 927.9 -- 73
2020-11-28 15:00:00 10.4 6 Oeste 22 Oeste 0 927.5 -- 70
2020-11-28 14:00:00 10.2 7 Sudoeste 23 Oeste 0 927.1 -- 70
2020-11-28 13:00:00 10.1 11 Sudoeste 26 Oeste 0 927.1 -- 71
2020-11-28 12:00:00 10.3 11 Oeste 25 Sur 0 927.7 -- 71
2020-11-28 11:00:00 8.2 10 Sur 24 Sur 0 927.7 -- 82
2020-11-28 10:00:00 6.1 9 Sudoeste 21 Sudoeste 0 927.4 -- 91
2020-11-28 09:00:00 3.6 10 Oeste 15 Oeste 0 926.3 -- 93
2020-11-28 08:00:00 2.4 6 Oeste 16 Sudoeste 0 926.4 -- 91
2020-11-28 07:00:00 3.8 8 Sudeste 16 Nordeste 0 925.9 -- 92
2020-11-28 06:00:00 4.4 5 Norte 12 Noroeste 0 925.8 -- 91
2020-11-28 05:00:00 5.1 5 Noroeste 7 Oeste 0 925.5 -- 90
2020-11-28 04:00:00 6.4 5 Oeste 20 Oeste 0 926.1 -- 90
2020-11-28 03:00:00 6.4 5 Oeste 22 Oeste 0 926.3 -- 90
2020-11-28 02:00:00 6.4 7 Oeste 23 Oeste 0 926.3 -- 90
2020-11-28 01:00:00 6.4 6 Noroeste 10 Noroeste 0 926.3 -- 90
2020-11-28 00:00:00 6.5 4 Noroeste 9 Oeste 0 926.4 -- 89
2020-11-27 23:00:00 6.5 4 Noroeste 9 Nordeste 0 926.4 -- 88
2020-11-27 22:00:00 6.6 8 Nordeste 14 Nordeste 0 926.5 -- 88
2020-11-27 21:00:00 6.6 12 Este 21 Este 0 926.4 -- 88
2020-11-27 20:00:00 7.1 14 Nordeste 30 Nordeste 0 926.5 -- 86
2020-11-27 19:00:00 7.4 20 Nordeste 36 Este 0 926.3 -- 86
2020-11-27 18:00:00 7.8 20 Este 33 Este 0 926.5 -- 87
2020-11-27 17:00:00 8.1 17 Este 37 Este 0.8 926.5 -- 88
2020-11-27 16:00:00 8.4 20 Este 38 Nordeste 1.4 926.5 -- 86
2020-11-27 15:00:00 8.8 26 Nordeste 36 Nordeste 0.6 926.4 -- 82
2020-11-27 14:00:00 8.8 26 Este 47 Este 0.2 926.9 -- 86
2020-11-27 13:00:00 8.9 16 Nordeste 32 Nordeste 0.6 927.5 -- 87
2020-11-27 12:00:00 8.3 16 Nordeste 34 Este 0.6 928.4 -- 88
2020-11-27 11:00:00 8.8 23 Este 34 Este 1 928.3 -- 90
2020-11-27 10:00:00 8.7 10 Este 25 Nordeste 0.4 928.4 -- 91
2020-11-27 09:00:00 8.7 11 Este 26 Este 2.8 928.3 -- 90
2020-11-27 08:00:00 8.8 8 Este 20 Este 0.4 928 -- 90
2020-11-27 07:00:00 8.9 7 Este 21 Este 0.2 928 -- 90
2020-11-27 06:00:00 9.2 8 Este 21 Este 1.2 928 -- 89
2020-11-27 05:00:00 9.1 14 Este 24 Este 0 928.5 -- 88
2020-11-27 04:00:00 9.2 14 Nordeste 22 Este 0 928.9 -- 86
2020-11-27 03:00:00 8.7 12 Este 31 Este 0 929.2 -- 87
2020-11-27 02:00:00 9.6 21 Este 41 Este 0 929.6 -- 86
2020-11-27 01:00:00 10 26 Este 39 Este 0 930 -- 86
2020-11-27 00:00:00 9.2 10 Sudeste 30 Este 0 930.1 -- 89
2020-11-26 23:00:00 8.1 0 Calma 5 Nordeste 0 930.1 -- 85
2020-11-26 22:00:00 8.8 0 Calma 7 Sudeste 0 930.2 -- 83
2020-11-26 21:00:00 9.2 4 Sudeste 23 Este 0 930.1 -- 85
2020-11-26 20:00:00 9.7 5 Sudeste 22 Este 0 930.1 -- 84
2020-11-26 19:00:00 9.8 2 Sudoeste 27 Sudoeste 0 929.6 -- 83
2020-11-26 18:00:00 10.4 11 Sudoeste 41 Sudeste 0 928.7 -- 81
2020-11-26 17:00:00 12.9 29 Este 50 Sudeste 0 927.7 -- 71
2020-11-26 16:00:00 12.8 29 Este 64 Este 0 927.4 -- 76
2020-11-26 15:00:00 12.3 40 Este 64 Este 0 927.7 -- 79
2020-11-26 14:00:00 11 36 Este 65 Este 0.2 928.3 -- 84
2020-11-26 13:00:00 10.7 32 Este 66 Este 0.2 929.4 -- 85
2020-11-26 12:00:00 10.2 32 Este 58 Este 0 930 -- 87
2020-11-26 11:00:00 9.7 34 Este 58 Este 0.6 930.3 -- 89
2020-11-26 10:00:00 9.5 39 Este 63 Este 0.2 930.2 -- 88
2020-11-26 09:00:00 9 25 Sudeste 55 Sudeste 0 930.1 -- 89
2020-11-26 08:00:00 9 21 Este 47 Este 0.2 930.4 -- 88
2020-11-26 07:00:00 8.7 22 Este -- -- 0 930 -- 88
2020-11-26 06:00:00 8.5 18 Sudeste -- -- 0 930.4 -- 87
2020-11-26 05:00:00 8.4 18 Sudeste 30 Sudeste 0 930.5 -- 86
2020-11-26 04:00:00 8.1 21 Este 33 Este 0 930.3 -- 86
2020-11-26 03:00:00 7.8 16 Este 28 Sudeste 0 930.6 -- 88
2020-11-26 02:00:00 7.9 19 Este 27 Este 0 931.1 -- 88
2020-11-26 01:00:00 8.4 15 Este 29 Este 0.2 931.7 -- 89
2020-11-26 00:00:00 8.9 11 Este 27 Este 0 932.1 -- 89
2020-11-25 23:00:00 9.4 12 Sudeste 31 Este 0.2 931.9 -- 88
2020-11-25 22:00:00 9.7 7 Sur 22 Sur 0 932.1 -- 85
2020-11-25 21:00:00 9.7 8 Sudeste 25 Sur 0 931.8 -- 81
2020-11-25 20:00:00 11.1 8 Sur 31 Sudoeste 0 931.7 -- 72
2020-11-25 19:00:00 12 9 Sur 40 Sur 0 931.5 -- 68
2020-11-25 18:00:00 13.1 10 Sudeste 26 Sur 0 931.2 -- 59
2020-11-25 17:00:00 13.3 7 Sudeste 26 Sudeste 0 931.6 -- 56
2020-11-25 16:00:00 14.4 12 Sudeste 37 Sur 0 931.9 -- 51
2020-11-25 15:00:00 14.1 15 Sudeste -- -- 0 932.6 -- 50
2020-11-25 14:00:00 14.5 18 Sur 41 Sur 0 933.3 -- 49
2020-11-25 13:00:00 13 14 Sudeste 28 Sudeste 0 934.5 -- 60
2020-11-25 12:00:00 12.8 10 Sur 31 Sudeste 0 935.3 -- 66
2020-11-25 11:00:00 9.9 14 Sudeste 24 Este 0 935.6 -- 74
2020-11-25 10:00:00 8 6 Sudeste 24 Sudeste 0 935.7 -- 78
2020-11-25 09:00:00 5.9 10 Sudeste 21 Sudeste 0 935.7 -- 81
2020-11-25 08:00:00 5.8 9 Sur 22 Sudeste 0 936 -- 80
2020-11-25 07:00:00 6.1 10 Sudeste 21 Sudeste 0 935.9 -- 79
2020-11-25 06:00:00 6.4 9 Sudeste 24 Sur 0 936.1 -- 78
2020-11-25 05:00:00 6.2 9 Sudeste 23 Sur 0 936.5 -- 79
2020-11-25 04:00:00 5.2 9 Sur 21 Sur 0 936.9 -- 79
2020-11-25 03:00:00 4.5 5 Este 19 Sudeste 0 937.3 -- 79
2020-11-25 02:00:00 5.3 9 Sudeste 21 Sur 0 937.7 -- 76
2020-11-25 01:00:00 4.5 10 Sur 19 Sur 0 938.3 -- 80
2020-11-25 00:00:00 4 6 Este 19 Sudoeste 0 938.5 -- 77
2020-11-24 23:00:00 4.6 5 Sudoeste 17 Sudoeste 0 939.2 -- 74
2020-11-24 22:00:00 5.9 9 Oeste 14 Oeste 0 939.4 -- 72
2020-11-24 21:00:00 6.1 7 Oeste 21 Sudoeste 0 939.5 -- 66
2020-11-24 20:00:00 7.7 8 Sudoeste 21 Sudoeste 0 939.4 -- 62
2020-11-24 19:00:00 9.7 6 Sudoeste 14 Sudeste 0 939.4 -- 54
2020-11-24 18:00:00 11.9 9 Sudoeste 31 Sudoeste 0 939.3 -- 47
2020-11-24 17:00:00 14.3 13 Sudoeste 31 Sudoeste 0 939.1 -- 36
2020-11-24 16:00:00 15.1 7 Sudeste 30 Este 0 939.4 -- 35
2020-11-24 15:00:00 15.3 8 Sudeste 27 Este 0 940 -- 38
2020-11-24 14:00:00 13.4 5 Sudeste 24 Sudeste 0 940.9 -- 46
2020-11-24 13:00:00 11.1 9 Sudeste 22 Sudeste 0 941.9 -- 58
2020-11-24 12:00:00 8.9 10 Sudeste 19 Este 0 942.8 -- 66
2020-11-24 11:00:00 5.5 6 Sudeste 15 Sur 0 943.3 -- 80
2020-11-24 10:00:00 2.4 4 Sudeste 10 Sudeste 0 943.3 -- 89
2020-11-24 09:00:00 0.6 5 Sudeste 12 Sudeste 0 942.9 -- 90
2020-11-24 08:00:00 0.2 5 Sur 13 Sudeste 0 942.7 -- 90
2020-11-24 07:00:00 0 7 Sudeste 11 Sudeste 0 942.7 -- 89
2020-11-24 06:00:00 0.6 3 Sudeste 12 Este 0 942.7 -- 88
2020-11-24 05:00:00 0.5 4 Sudeste 10 Sur 0 942.8 -- 87
2020-11-24 04:00:00 0.5 0 Calma 11 Nordeste 0 943.2 -- 87
2020-11-24 03:00:00 0.3 3 Norte 16 Nordeste 0 943.6 -- 85
2020-11-24 02:00:00 0.8 3 Nordeste 18 Sudoeste 0 944 -- 84
2020-11-24 01:00:00 1.3 8 Sudoeste 18 Sudoeste 0 944.3 -- 84
2020-11-24 00:00:00 1.6 4 Oeste 18 Oeste 0 944.7 -- 83
2020-11-23 23:00:00 2.1 5 Oeste 18 Oeste 0 945 -- 81
2020-11-23 22:00:00 3.7 4 Sudoeste 10 Sudoeste 0 945 -- 74
2020-11-23 21:00:00 5.2 6 Sudoeste 8 Oeste 0 945 -- 74
2020-11-23 20:00:00 7.1 3 Sur 8 Sudoeste 0 944.8 -- 65
2020-11-23 19:00:00 10.6 4 Este 10 Sur 0 944.7 -- 57
2020-11-23 18:00:00 12.6 5 Este 11 Sur 0 944.5 -- 49
2020-11-23 17:00:00 14.5 3 Este 12 Este 0 944.4 -- 42
2020-11-23 16:00:00 14.9 2 Este 10 Oeste 0 944.4 -- 43
2020-11-23 15:00:00 13.9 4 Este 11 Este 0 944.8 -- 46
2020-11-23 14:00:00 12.6 5 Este 22 Este 0 945.3 -- 48
2020-11-23 13:00:00 11.1 9 Este 23 Este 0 946 -- 59
2020-11-23 12:00:00 9 9 Este 21 Este 0 946.8 -- 69
2020-11-23 11:00:00 7.8 7 Sudeste 16 Este 0.2 947 -- 76
2020-11-23 10:00:00 3.2 0 Calma 10 Este 0 946.9 -- 91
2020-11-23 09:00:00 -1.5 3 Sudoeste 6 Sudoeste 0 946.5 -- 91
2020-11-23 08:00:00 -2.2 0 Calma -- -- 0 946.2 -- 90
2020-11-23 07:00:00 -1.5 0 Calma 9 Este 0 945.9 -- 90
2020-11-23 06:00:00 -0.8 3 Oeste 8 Oeste 0 945.8 -- 90
2020-11-23 05:00:00 -0.6 5 Oeste 17 Oeste 0 945.7 -- 89
2020-11-23 04:00:00 -0.8 4 Oeste 15 Sudoeste 0 945.9 -- 88
2020-11-23 03:00:00 0 5 Sur 15 Oeste 0 946 -- 87
2020-11-23 02:00:00 1.2 4 Sudeste 15 Nordeste 0 946.2 -- 86
2020-11-23 01:00:00 2.5 4 Este 17 Este 0 946.4 -- 85
2020-11-23 00:00:00 2.9 5 Este 17 Nordeste 0 946.4 -- 86
2020-11-22 23:00:00 2.7 4 Oeste 17 Oeste 0 946.3 -- 82
2020-11-22 22:00:00 3.5 5 Oeste 17 Oeste 0 946.1 -- 83
2020-11-22 21:00:00 4.8 5 Oeste 18 Oeste 0 946 -- 77
2020-11-22 20:00:00 8.3 4 Sudeste 6 Sudeste 0 945.7 -- 65
2020-11-22 19:00:00 9.8 4 Sudeste 7 Sudeste 0 945.3 -- 62
2020-11-22 18:00:00 11.9 3 Sudeste 6 Este 0 945.3 -- 55
2020-11-22 17:00:00 12.9 4 Este 9 Sudeste 0 945.3 -- 53
2020-11-22 16:00:00 13.4 4 Sudeste 18 Este 0 945.1 -- 50
2020-11-22 15:00:00 11.6 7 Sudeste 23 Este 0 945.6 -- 60
2020-11-22 14:00:00 9.1 8 Sudeste 20 Este 0 946.2 -- 73
2020-11-22 13:00:00 5.9 8 Sudeste 21 Sudeste 0 947.1 -- 90
2020-11-22 12:00:00 4.6 7 Sudeste 17 Sur 0 947.7 -- 92
2020-11-22 11:00:00 3.7 7 Este 15 Sur 0 947.7 -- 93
2020-11-22 10:00:00 3.4 3 Sudeste 13 Nordeste 0 947.8 -- 93
2020-11-22 09:00:00 3.2 5 Este 15 Este 0 947.3 -- 92
2020-11-22 08:00:00 3.1 5 Sudeste 13 Sur 0 946.9 -- 92
2020-11-22 07:00:00 1 3 Este 17 Sudoeste 0 946.8 -- 91
2020-11-22 06:00:00 -0.3 4 Noroeste 15 Oeste 0 946.5 -- 90
2020-11-22 05:00:00 0 6 Oeste 19 Oeste 0 946.4 -- 89
2020-11-22 04:00:00 1.3 6 Sudeste 17 Este 0 946.5 -- 86
2020-11-22 03:00:00 1.8 0 Calma 17 Oeste 0 946.4 -- 85
2020-11-22 02:00:00 3.2 3 Sudoeste 17 Este 0 946.6 -- 83
2020-11-22 01:00:00 3.7 9 Este 16 Este 0 946.5 -- 85
2020-11-22 00:00:00 4.7 9 Este 18 Este 0 946.4 -- 81
2020-11-21 23:00:00 5.9 9 Este 19 Este 0 946.5 -- 76
2020-11-21 22:00:00 6.7 8 Sudeste 21 Este 0 946.4 -- 75
2020-11-21 21:00:00 7.3 8 Este 20 Este 0 946.4 -- 75
2020-11-21 20:00:00 8.5 5 Nordeste 19 Este 0 945.9 -- 69
2020-11-21 19:00:00 9.8 10 Este 31 Este 0 945.8 -- 63
2020-11-21 18:00:00 12.8 14 Este 34 Este 0 945.3 -- 54
2020-11-21 17:00:00 15.3 14 Este 34 Este 0 944.9 -- 47
2020-11-21 16:00:00 15.6 14 Este 34 Este 0 944.7 -- 41
2020-11-21 15:00:00 15.5 15 Este 34 Este 0 944.9 -- 42
2020-11-21 14:00:00 14.4 11 Este 31 Este 0 945.3 -- 52
2020-11-21 13:00:00 12.5 10 Este 28 Este 0 945.9 -- 63
2020-11-21 12:00:00 10.4 14 Este 27 Este 0 946.5 -- 63
2020-11-21 11:00:00 8.5 13 Este 18 Este 0 946.7 -- 54
2020-11-21 10:00:00 5.1 3 Oeste 16 Oeste 0 946.6 -- 70
2020-11-21 09:00:00 1.4 4 Oeste 17 Oeste 0 946.1 -- 79
2020-11-21 08:00:00 0.5 6 Oeste 11 Oeste 0 945.7 -- 79
2020-11-21 07:00:00 1.4 6 Oeste 9 Oeste 0 945.3 -- 76
2020-11-21 06:00:00 0.9 6 Oeste 10 Sudoeste 0 945.2 -- 76
2020-11-21 05:00:00 1.4 8 Oeste 17 Nordeste 0 945.4 -- 74
2020-11-21 04:00:00 3.7 5 Nordeste 22 Nordeste 0 945.5 -- 64
2020-11-21 03:00:00 4.6 8 Norte 16 Norte 0 945.6 -- 60
2020-11-21 02:00:00 5.6 8 Noroeste 17 Noroeste 0 945.9 -- 56
2020-11-21 01:00:00 4.3 10 Noroeste 22 Oeste 0 946.2 -- 66
2020-11-21 00:00:00 4.9 9 Noroeste 22 Oeste 0 946.3 -- 64
2020-11-20 23:00:00 5.7 6 Noroeste 18 Oeste 0 946.3 -- 61
2020-11-20 22:00:00 8.8 8 Norte 21 Norte 0 946 -- 49
2020-11-20 21:00:00 7.9 10 Noroeste 16 Noroeste 0 945.9 -- 54
2020-11-20 20:00:00 10 8 Noroeste 24 Noroeste 0 945.6 -- 47
2020-11-20 19:00:00 13.3 14 Norte 35 Nordeste 0 945.3 -- 36
2020-11-20 18:00:00 14.8 10 Norte 26 Norte 0 945.4 -- 33
2020-11-20 17:00:00 16.7 15 Norte 29 Norte 0 945.6 -- 27
2020-11-20 16:00:00 16.9 16 Norte 44 Norte 0 945.8 -- 24
2020-11-20 15:00:00 16.5 23 Nordeste 42 Nordeste 0 946.3 -- 21
2020-11-20 14:00:00 16 17 Nordeste 43 Norte 0 947.1 -- 22
2020-11-20 13:00:00 14.9 18 Norte 40 Norte 0 948 -- 25
2020-11-20 12:00:00 13.1 15 Norte 35 Norte 0 948.9 -- 36
2020-11-20 11:00:00 10.5 13 Norte 31 Norte 0 948.8 -- 49
2020-11-20 10:00:00 8.5 8 Noroeste 18 Noroeste 0 948.7 -- 69
2020-11-20 09:00:00 5.8 6 Noroeste 23 Oeste 0 948.5 -- 82
2020-11-20 08:00:00 5 10 Noroeste 21 Oeste 0 948.5 -- 83
2020-11-20 07:00:00 5 11 Noroeste 19 Noroeste 0 948.4 -- 85
2020-11-20 06:00:00 5.6 10 Noroeste 19 Noroeste 0 948.5 -- 86
2020-11-20 05:00:00 6.1 13 Noroeste 23 Oeste 0 948.7 -- 89
2020-11-20 04:00:00 6.2 8 Noroeste 22 Noroeste 0 948.9 -- 86
2020-11-20 03:00:00 7.6 7 Noroeste 17 Noroeste 0 949 -- 87
2020-11-20 02:00:00 8.6 5 Norte 14 Noroeste 0 949.8 -- 85
2020-11-20 01:00:00 8.4 4 Noroeste 12 Noroeste 0 950 -- 84
2020-11-20 00:00:00 10.7 6 Norte 17 Noroeste 0 950 -- 82
2020-11-19 23:00:00 10.4 10 Noroeste 17 Norte 0 950.5 -- 83
2020-11-19 22:00:00 10.5 9 Noroeste 21 Norte 0 950 -- 83
2020-11-19 21:00:00 10.9 9 Noroeste 22 Norte 0 949.8 -- 80
2020-11-19 20:00:00 12.8 12 Noroeste 26 Noroeste 0 949.6 -- 76
2020-11-19 19:00:00 14.7 9 Noroeste 24 Norte 0 949.5 -- 69
2020-11-19 18:00:00 17.1 9 Noroeste 26 Norte 0 949 -- 62
2020-11-19 17:00:00 19.4 12 Norte 30 Norte 0 948.8 -- 52
2020-11-19 16:00:00 19.9 10 Norte 28 Norte 0 948.9 -- 49
2020-11-19 15:00:00 19.3 11 Nordeste 31 Norte 0 949 -- 46
2020-11-19 14:00:00 18.6 18 Norte 31 Norte 0 949.8 -- 48
2020-11-19 13:00:00 16.8 13 Norte 26 Norte 0 950.3 -- 58
2020-11-19 12:00:00 15.2 14 Norte 26 Norte 0 950.9 -- 60
2020-11-19 11:00:00 13.3 10 Noroeste 21 Noroeste 0 950.2 -- 85
2020-11-19 10:00:00 9.6 5 Oeste 13 Noroeste 0 949.9 -- 94
2020-11-19 09:00:00 5.3 7 Noroeste 13 Noroeste 0 949.3 -- 94
2020-11-19 08:00:00 5.1 8 Noroeste 15 Noroeste 0 948.7 -- 94
2020-11-19 07:00:00 4.9 7 Noroeste 14 Noroeste 0 948.3 -- 94
2020-11-19 06:00:00 4.9 9 Noroeste 15 Noroeste 0.2 947.8 -- 94
2020-11-19 05:00:00 4.7 7 Noroeste 11 Noroeste 0 947.6 -- 93
2020-11-19 04:00:00 5 4 Noroeste 17 Nordeste 0 947.6 -- 93
2020-11-19 03:00:00 5.9 5 Noroeste 11 Noroeste 0 947.7 -- 93
2020-11-19 02:00:00 6.7 7 Noroeste 19 Noroeste 0 947.7 -- 93
2020-11-19 01:00:00 6.9 9 Noroeste 17 Noroeste 0 947.9 -- 92
2020-11-19 00:00:00 7.3 3 Noroeste 11 Norte 0 947.9 -- 91
2020-11-18 23:00:00 7.7 3 Noroeste 10 Noroeste 0 947.8 -- 91
2020-11-18 22:00:00 8 6 Noroeste 11 Norte 0 947.5 -- 89
2020-11-18 21:00:00 9.1 4 Noroeste 12 Norte 0 947.2 -- 89
2020-11-18 20:00:00 10.3 7 Oeste 15 Noroeste 0 946.8 -- 87
2020-11-18 19:00:00 12.5 9 Norte 22 Norte 0 946.6 -- 84
2020-11-18 18:00:00 14.9 9 Norte 23 Norte 0 946.2 -- 76
2020-11-18 17:00:00 17.4 11 Nordeste 23 Norte 0 946 -- 66
2020-11-18 16:00:00 18.6 7 Nordeste 20 Nordeste 0 945.9 -- 60
2020-11-18 15:00:00 18.2 10 Nordeste 23 Norte 0 946 -- 61
2020-11-18 14:00:00 17.7 14 Norte 23 Norte 0 946.4 -- 61
2020-11-18 13:00:00 15.2 7 Norte 17 Norte 0 947 -- 72
2020-11-18 12:00:00 11.3 4 Este 18 Nordeste 0 947.7 -- 91
2020-11-18 11:00:00 8.3 9 Este 19 Este 0 947.8 -- 93
2020-11-18 10:00:00 6.5 6 Sudeste 15 Este 0 947.6 -- 93
2020-11-18 09:00:00 4 2 Sudoeste 13 Sur 0 947.2 -- 93
2020-11-18 08:00:00 3.7 5 Sudeste 17 Este 0 946.9 -- 93
2020-11-18 07:00:00 4.4 6 Sudeste 18 Este 0 946.8 -- 93
2020-11-18 06:00:00 4.4 5 Este 18 Este 0.2 946.5 -- 93
2020-11-18 05:00:00 4.7 3 Este 16 Nordeste 0 946.3 -- 92
2020-11-18 04:00:00 4.9 2 Norte 17 Oeste 0 946.5 -- 92
2020-11-18 03:00:00 5 0 Calma 18 Este 0 946.4 -- 91
2020-11-18 02:00:00 5.8 5 Este 18 Este 0 946.7 -- 91
2020-11-18 01:00:00 6.4 2 Oeste 4 Nordeste 0 946.8 -- 90
2020-11-18 00:00:00 8.4 0 Calma 7 Noroeste 0 946.9 -- 89
2020-11-17 23:00:00 9.8 5 Sudoeste 11 Este 0 947 -- 87
2020-11-17 22:00:00 11 0 Calma 11 Este 0 946.7 -- 87
2020-11-17 21:00:00 11.4 5 Sudoeste 12 Este 0 946.4 -- 85
2020-11-17 20:00:00 12.5 0 Calma 17 Oeste 0 946.1 -- 85
2020-11-17 19:00:00 14.7 4 Sudeste 19 Este 0 945.8 -- 79
2020-11-17 18:00:00 16.2 10 Sudeste 22 Sur 0 945.5 -- 74
2020-11-17 17:00:00 17.1 11 Sudeste 24 Sudeste 0 945.5 -- 73
2020-11-17 16:00:00 16.8 10 Sudeste 21 Sur 0 945.4 -- 75
2020-11-17 15:00:00 15.5 9 Sudeste 18 Sudeste 0 945.6 -- 81
2020-11-17 14:00:00 14.7 7 Sudeste 18 Sur 0 946.1 -- 88
2020-11-17 13:00:00 13 6 Sudeste 13 Sudeste 0 946.7 -- 93
2020-11-17 12:00:00 11.6 5 Sudeste 18 Este 0 947.2 -- 94
2020-11-17 11:00:00 10.5 2 Sudeste 19 Sudoeste 0 947.1 -- 94
2020-11-17 10:00:00 9.3 3 Sudeste 18 Sudoeste 0 947.1 -- 94
2020-11-17 09:00:00 8.2 2 Sudoeste 7 Oeste 0 946.4 -- 93
2020-11-17 08:00:00 7.9 2 Noroeste 5 Oeste 0 945.8 -- 93
2020-11-17 07:00:00 8 0 Calma 8 Nordeste 0 945.5 -- 93
2020-11-17 06:00:00 6.7 5 Nordeste 17 Este 0.2 945.3 -- 92
2020-11-17 05:00:00 7.6 0 Calma 8 Sudoeste 0 945.1 -- 91
2020-11-17 04:00:00 8.3 5 Sudoeste 10 Norte 0 945.4 -- 92
2020-11-17 03:00:00 8.5 5 Oeste 11 Norte 0 945.3 -- 91
2020-11-17 02:00:00 8.5 3 Noroeste 6 Sudoeste 0 945.6 -- 91
2020-11-17 01:00:00 9.1 4 Sudoeste 9 Oeste 0 945.5 -- 91
2020-11-17 00:00:00 9.5 4 Oeste 10 Norte 0 945.6 -- 89
2020-11-16 23:00:00 10.6 5 Sudoeste 10 Este 0 945.5 -- 88
2020-11-16 22:00:00 11.5 5 Oeste 17 Oeste 0 945.4 -- 87
2020-11-16 21:00:00 12.9 8 Noroeste 19 Nordeste 0 945 -- 83
2020-11-16 20:00:00 14.3 5 Nordeste 19 Norte 0 944.6 -- 81
2020-11-16 19:00:00 15.1 8 Nordeste 24 Norte 0 944 -- 78
2020-11-16 18:00:00 17 15 Norte 24 Norte 0 943.3 -- 69
2020-11-16 17:00:00 19 10 Noroeste 26 Oeste 0 943 -- 58
2020-11-16 16:00:00 19.4 15 Noroeste 30 Noroeste 0 943 -- 57
2020-11-16 15:00:00 18.9 13 Noroeste 29 Oeste 0 943 -- 59
2020-11-16 14:00:00 18.8 14 Noroeste 27 Noroeste 0 943.3 -- 63
2020-11-16 13:00:00 18 14 Oeste 27 Noroeste 0 943.6 -- 69
2020-11-16 12:00:00 17.3 12 Oeste 24 Oeste 0 944 -- 75
2020-11-16 11:00:00 15.3 6 Oeste 20 Oeste 0 944 -- 88
2020-11-16 10:00:00 14 10 Noroeste 21 Oeste 0 943.7 -- 90
2020-11-16 09:00:00 13 7 Sudoeste 12 Oeste 0 942.8 -- 91
2020-11-16 08:00:00 12 4 Sudoeste 12 Norte 0 942.3 -- 91
2020-11-16 07:00:00 11.8 8 Norte 15 Norte 0 942.2 -- 90
2020-11-16 06:00:00 12.6 10 Oeste 19 Oeste 0 941.4 -- 90
2020-11-16 05:00:00 12.3 8 Sudoeste 13 Sudoeste 0 941.3 -- 89
2020-11-16 04:00:00 13.1 9 Sudeste 15 Sudeste 0 941.7 -- 89
2020-11-16 03:00:00 12.6 6 Sudoeste 13 Nordeste 0 941.6 -- 88
2020-11-16 02:00:00 13.2 6 Sudoeste 12 Sudeste 0 942 -- 88
2020-11-16 01:00:00 13.3 4 Sudoeste 17 Oeste 0 942.5 -- 88
2020-11-16 00:00:00 12.9 4 Oeste 17 Norte 0 942.1 -- 87
2020-11-15 23:00:00 13.8 9 Sudeste 15 Sudeste 0 941.7 -- 86
2020-11-15 22:00:00 14.2 9 Sudeste 14 Nordeste 0 941.9 -- 84
2020-11-15 21:00:00 15 8 Sudeste 21 Sur 0 942.1 -- 81
2020-11-15 20:00:00 15.1 9 Sur 20 Sur 0 941.8 -- 83
2020-11-15 19:00:00 16 8 Sudoeste 21 Oeste 0 942 -- 79
2020-11-15 18:00:00 17.1 10 Sudoeste 24 Oeste 0 941.5 -- 73
2020-11-15 17:00:00 18 10 Oeste 22 Oeste 0 941.3 -- 71
2020-11-15 16:00:00 17.6 12 Oeste 26 Sudoeste 0 941.3 -- 73
2020-11-15 15:00:00 17.5 14 Oeste 23 Oeste 0 941.4 -- 73
2020-11-15 14:00:00 17.5 18 Sudoeste 32 Sudoeste 0 941.7 -- 74
2020-11-15 13:00:00 17 15 Sudoeste 33 Sudoeste 0 942 -- 76
2020-11-15 12:00:00 16.3 17 Sudoeste 31 Sudoeste 0 942.5 -- 79
2020-11-15 11:00:00 15.3 18 Sudoeste 33 Sudoeste 0 942.4 -- 84
2020-11-15 10:00:00 13.2 8 Sur 15 Sudoeste 0 942.4 -- 90
2020-11-15 09:00:00 12.3 9 Sur 19 Sudoeste 0 942.1 -- 91
2020-11-15 08:00:00 11.6 10 Sudeste 17 Sudeste 0 941.3 -- 91
2020-11-15 07:00:00 11 8 Sur 13 Sudeste 0 941.4 -- 92
2020-11-15 06:00:00 10.6 4 Sur 24 Sudoeste 0 940.9 -- 91
2020-11-15 05:00:00 10.1 10 Sudoeste 18 Sudoeste 0 940.8 -- 91
2020-11-15 04:00:00 10.2 11 Sudoeste 19 Sudoeste 0 941 -- 90
2020-11-15 03:00:00 10.1 9 Sudoeste 15 Sudoeste 0 941.5 -- 90
2020-11-15 02:00:00 10.5 8 Sudoeste 15 Sudoeste 0 941.6 -- 90
2020-11-15 01:00:00 11.9 9 Sudoeste 22 Sudoeste 0 941.6 -- 88
2020-11-15 00:00:00 12.7 10 Sudoeste 17 Sudoeste 0.2 941.5 -- 89
2020-11-14 23:00:00 12.6 6 Sudoeste 10 Este 0 941.5 -- 91
2020-11-14 22:00:00 12.8 2 Sudeste 13 Sur 0 941.3 -- 91
2020-11-14 21:00:00 13 0 Calma 11 Este 0 941.2 -- 89
2020-11-14 20:00:00 13.2 0 Calma 15 Sudeste 0 941 -- 88
2020-11-14 19:00:00 13.3 3 Sur 11 Este 0 940.5 -- 89
2020-11-14 18:00:00 13.6 3 Sur 11 Este 0.2 940.1 -- 88
2020-11-14 17:00:00 13.8 0 Calma 11 Este 0 940 -- 87
2020-11-14 16:00:00 13.8 4 Sudeste 13 Sudeste 0 939.9 -- 88
2020-11-14 15:00:00 13.2 3 Sudeste 13 Sur 0.6 940 -- 89
2020-11-14 14:00:00 12.7 4 Sudeste 8 Sudeste 0 940.4 -- 89
2020-11-14 13:00:00 11.6 3 Sudeste 9 Sudeste 0.2 940.8 -- 90
2020-11-14 12:00:00 11.2 6 Sudeste 13 Sudeste 0.2 941.1 -- 90
2020-11-14 11:00:00 10.8 6 Sudeste 12 Sudeste 0.2 941 -- 89
2020-11-14 10:00:00 10.2 5 Sur 18 Este 0.4 940.9 -- 89
2020-11-14 09:00:00 9.5 4 Sudeste 18 Este 0 940.5 -- 89
2020-11-14 08:00:00 9.5 4 Sudeste 22 Este 0 940 -- 89
2020-11-14 07:00:00 9.6 6 Sudeste 20 Este 0 940 -- 88
2020-11-14 06:00:00 9.5 6 Este 20 Este 0 939.7 -- 87
2020-11-14 05:00:00 9.9 2 Sudeste 9 Sudoeste 0 939.6 -- 86
2020-11-14 04:00:00 9.6 5 Sudoeste 10 Sudoeste 0 940 -- 85
2020-11-14 03:00:00 9.6 4 Sur 19 Este 0 940.2 -- 83
2020-11-14 02:00:00 8.8 10 Este 22 Este 0 940.6 -- 85
2020-11-14 01:00:00 9.3 2 Sudoeste 4 Sur 0 941 -- 83
2020-11-14 00:00:00 9.8 3 Sur 5 Sur 0 941.1 -- 80
2020-11-13 23:00:00 9.9 3 Sur 17 Este 0 940.9 -- 78
2020-11-13 22:00:00 9.7 3 Sudeste 8 Sudoeste 0 940.9 -- 79
2020-11-13 21:00:00 9.8 3 Sur 12 Norte 0 940.6 -- 80
2020-11-13 20:00:00 10.3 5 Sudoeste 12 Oeste 0 940.4 -- 75
2020-11-13 19:00:00 12.9 2 Sur 14 Sur 0 940 -- 68
2020-11-13 18:00:00 14.6 6 Sudeste 17 Sur 0 939.5 -- 61
2020-11-13 17:00:00 15.6 7 Sudeste 18 Sur 0 939.4 -- 57
2020-11-13 16:00:00 16.4 8 Sudeste 23 Sur 0 939.3 -- 56
2020-11-13 15:00:00 16.6 3 Sudeste 13 Sudeste 0 939.6 -- 56
2020-11-13 14:00:00 16.2 2 Sur 11 Oeste 0 940.1 -- 62
2020-11-13 13:00:00 15.2 5 Sudeste 11 Sur 0 940.8 -- 64
2020-11-13 12:00:00 12.6 6 Sudeste 21 Este 0 941.3 -- 78
2020-11-13 11:00:00 9.4 12 Sudeste 24 Este 0 941.1 -- 88
2020-11-13 10:00:00 6.9 4 Sur 17 Sur 0 941.1 -- 92
2020-11-13 09:00:00 5.1 4 Sudeste 17 Sudoeste 0.2 940.5 -- 92
2020-11-13 08:00:00 3.7 4 Sur 18 Sudoeste 0 940.1 -- 90
2020-11-13 07:00:00 4.3 8 Sudoeste 20 Sudoeste 0 939.9 -- 90
2020-11-13 06:00:00 4.1 5 Oeste 18 Oeste 0 939.7 -- 89
2020-11-13 05:00:00 5.1 0 Calma 16 Sur 0 939.5 -- 89
2020-11-13 04:00:00 5.8 0 Calma 17 Sudoeste 0 939.6 -- 88
2020-11-13 03:00:00 6.1 0 Calma 15 Sudoeste 0 939.9 -- 88
2020-11-13 02:00:00 5.9 5 Oeste 6 Oeste 0 940.1 -- 87
2020-11-13 01:00:00 6.1 5 Sudoeste 7 Oeste 0 940.1 -- 86
2020-11-13 00:00:00 7 2 Sur 24 Este 0 940 -- 83
2020-11-12 23:00:00 8.1 13 Este 23 Este 0 939.7 -- 85
2020-11-12 22:00:00 7.6 2 Nordeste 11 Norte 0 940 -- 82
2020-11-12 21:00:00 8.7 5 Sudoeste 11 Sudoeste 0 940 -- 77
2020-11-12 20:00:00 11 7 Nordeste 14 Nordeste 0 940 -- 70
2020-11-12 19:00:00 11.7 6 Nordeste 15 Este 0 939.8 -- 67
2020-11-12 18:00:00 13.4 11 Este 32 Este 0 939.6 -- 61
2020-11-12 17:00:00 14.9 18 Este 34 Este 0 939.5 -- 55
2020-11-12 16:00:00 15.5 14 Este 35 Este 0 939.6 -- 57
2020-11-12 15:00:00 15.3 18 Este 35 Este 0 939.9 -- 58
2020-11-12 14:00:00 14.5 17 Este 34 Este 0 940.7 -- 69
2020-11-12 13:00:00 12.4 7 Este 26 Este 0 941.8 -- 80
2020-11-12 12:00:00 11.2 6 Este 24 Este 0 942.6 -- 84
2020-11-12 11:00:00 9.7 12 Este 24 Este 0 942.8 -- 91
2020-11-12 10:00:00 7.9 8 Nordeste 21 Nordeste 0 942.7 -- 93
2020-11-12 09:00:00 5 5 Oeste 17 Oeste 0 942.7 -- 93
2020-11-12 08:00:00 3.9 6 Oeste 20 Oeste 0 942.1 -- 92
2020-11-12 07:00:00 3.4 4 Sudoeste 17 Sudoeste 0 942 -- 92
2020-11-12 06:00:00 4 9 Este 15 Este 0 941.7 -- 91
2020-11-12 05:00:00 5 3 Sudeste 5 Oeste 0 942 -- 91
2020-11-12 04:00:00 5.4 3 Oeste 5 Oeste 0 942.7 -- 91
2020-11-12 03:00:00 5.5 4 Oeste 6 Oeste 0 943 -- 90
2020-11-12 02:00:00 5.9 5 Noroeste 9 Noroeste 0 943.4 -- 90
2020-11-12 01:00:00 7.1 4 Oeste 6 Sudoeste 0 943.4 -- 90
2020-11-12 00:00:00 7.5 4 Noroeste 8 Noroeste 0 943.4 -- 90
2020-11-11 23:00:00 7.7 3 Oeste 10 Norte 0 943.4 -- 89
2020-11-11 22:00:00 8.4 3 Oeste 7 Sudoeste 0 943.1 -- 88
2020-11-11 21:00:00 9.2 5 Sudoeste 11 Oeste 0 943.1 -- 85
2020-11-11 20:00:00 11.3 3 Norte 11 Oeste 0 943 -- 81
2020-11-11 19:00:00 12.2 9 Norte 14 Nordeste 0 942.9 -- 79
2020-11-11 18:00:00 14.1 5 Sudeste 12 Sur 0 942.6 -- 72
2020-11-11 17:00:00 15.1 7 Este 14 Este 0 942.4 -- 68
2020-11-11 16:00:00 14.7 6 Este 14 Este 0 942.5 -- 70
2020-11-11 15:00:00 13.1 5 Sudeste 23 Este 0 942.5 -- 80
2020-11-11 14:00:00 10.6 13 Este 23 Este 0 943.3 -- 92
2020-11-11 13:00:00 9.4 11 Este 24 Este 0 944 -- 93
2020-11-11 12:00:00 8.8 4 Este 24 Este 0 944.8 -- 94
2020-11-11 11:00:00 7.9 7 Sudeste 21 Este 0 944.9 -- 94
2020-11-11 10:00:00 6.9 6 Sudeste 19 Este 0 945.1 -- 94
2020-11-11 09:00:00 5.5 5 Sudoeste 18 Este 0.2 945 -- 93
2020-11-11 08:00:00 4.1 10 Este 16 Este 0 944.7 -- 93
2020-11-11 07:00:00 4.1 4 Este 18 Este 0 944.8 -- 92
2020-11-11 06:00:00 4 12 Este 17 Este 0 944.9 -- 91
2020-11-11 05:00:00 4.4 9 Este 16 Este 0 944.9 -- 91
2020-11-11 04:00:00 4.4 5 Noroeste 8 Noroeste 0 945.3 -- 90
2020-11-11 03:00:00 4.8 5 Oeste 8 Noroeste 0 945.3 -- 90
2020-11-11 02:00:00 5.4 4 Noroeste 6 Noroeste 0 946 -- 89
2020-11-11 01:00:00 6.1 2 Sur 8 Sudoeste 0 945.8 -- 89
2020-11-11 00:00:00 6.5 3 Sudoeste 8 Sudoeste 0 946 -- 89
2020-11-10 23:00:00 7 5 Oeste 10 Norte 0 946.2 -- 88
2020-11-10 22:00:00 8.2 5 Oeste 11 Noroeste 0 945.7 -- 86
2020-11-10 21:00:00 9.7 6 Norte 13 Noroeste 0 945.5 -- 83
2020-11-10 20:00:00 10.8 5 Norte 18 Norte 0 945.5 -- 80
2020-11-10 19:00:00 12.3 9 Norte 21 Norte 0 945.6 -- 77
2020-11-10 18:00:00 14.4 8 Norte 21 Norte 0 945.1 -- 69
2020-11-10 17:00:00 15.4 9 Norte 22 Norte 0 945.1 -- 64
2020-11-10 16:00:00 15.3 6 Nordeste 19 Norte 0 945.1 -- 66
2020-11-10 15:00:00 14.7 6 Norte 21 Nordeste 0 945.3 -- 69
2020-11-10 14:00:00 13.4 5 Nordeste 15 Nordeste 0 945.6 -- 78
2020-11-10 13:00:00 11.4 6 Noroeste 14 Norte 0 946.4 -- 93
2020-11-10 12:00:00 9.5 5 Noroeste 9 Oeste 0 946.7 -- 94
2020-11-10 11:00:00 8.3 4 Noroeste 9 Noroeste 0 946.8 -- 94
2020-11-10 10:00:00 7.5 4 Noroeste 14 Nordeste 0 946.4 -- 93
2020-11-10 09:00:00 5.2 2 Noroeste 17 Oeste 0 945.7 -- 93
2020-11-10 08:00:00 3.6 4 Oeste 19 Oeste 0 945.2 -- 92
2020-11-10 07:00:00 4 8 Oeste 23 Oeste 0 944.9 -- 92
2020-11-10 06:00:00 4.5 4 Oeste 21 Oeste 0.2 944.5 -- 92
2020-11-10 05:00:00 5 6 Oeste 20 Oeste 0 944.3 -- 92
2020-11-10 04:00:00 5.4 0 Calma 14 Este 0 944.2 -- 92
2020-11-10 03:00:00 6 3 Oeste 9 Sudoeste 0 944.4 -- 92
2020-11-10 02:00:00 6.5 6 Sudoeste 10 Oeste 0 944.3 -- 91
2020-11-10 01:00:00 6.8 5 Oeste 10 Norte 0 944.4 -- 91
2020-11-10 00:00:00 7.7 4 Oeste 12 Norte 0 944.5 -- 91
2020-11-09 23:00:00 8.6 4 Oeste 10 Norte 0 944.5 -- 90
2020-11-09 22:00:00 8.9 4 Noroeste 11 Norte 0 944.1 -- 90
2020-11-09 21:00:00 10.1 0 Calma 11 Norte 0 943.7 -- 87
2020-11-09 20:00:00 10.7 10 Norte 16 Nordeste 0 943.5 -- 84
2020-11-09 19:00:00 12.6 4 Norte 17 Nordeste 0 943 -- 80
2020-11-09 18:00:00 13.2 7 Norte 23 Norte 0 942.5 -- 77
2020-11-09 17:00:00 14.3 14 Norte 28 Norte 0 942.2 -- 76
2020-11-09 16:00:00 16.3 8 Sudoeste 33 Sudoeste 0 941.8 -- 68
2020-11-09 15:00:00 15.5 14 Sur -- -- 0 941.9 -- 72
2020-11-09 14:00:00 14.7 10 Sudoeste 18 Sudoeste 0 942 -- 75
2020-11-09 13:00:00 13.9 11 Oeste 19 Sudoeste 0 942.4 -- 79
2020-11-09 12:00:00 13 6 Oeste 13 Sur 0 942.9 -- 86
2020-11-09 11:00:00 11.4 7 Sudeste 14 Sur 0.2 942.9 -- 92
2020-11-09 10:00:00 10 9 Sudeste 26 Sudeste 0.4 942.4 -- 92
2020-11-09 09:00:00 9.7 6 Sudeste 22 Sudoeste 1.2 942.4 -- 91
2020-11-09 08:00:00 9.5 9 Sudeste 22 Este 0 941.2 -- 91
2020-11-09 07:00:00 9.2 4 Norte 8 Noroeste 0.4 941.3 -- 91
2020-11-09 06:00:00 8.9 2 Nordeste 20 Este 0.2 941 -- 90
2020-11-09 05:00:00 8.9 3 Sudeste 17 Este 0 940.8 -- 89
2020-11-09 04:00:00 8.3 4 Este 21 Este 0 940.7 -- 89
2020-11-09 03:00:00 8.2 10 Este 20 Este 0 940.9 -- 89
2020-11-09 02:00:00 8.1 0 Calma 20 Este 0 940.9 -- 88
2020-11-09 01:00:00 8 5 Este 20 Este 0 941.2 -- 87
2020-11-09 00:00:00 9.6 9 Este 22 Este 0 941.3 -- 84
2020-11-08 23:00:00 10 3 Sudeste 8 Sudeste 0 941.4 -- 82
2020-11-08 22:00:00 10.5 3 Sudeste 15 Sudeste 0 941.3 -- 80
2020-11-08 21:00:00 11.9 5 Sur 20 Sudeste 0 941.3 -- 76
2020-11-08 20:00:00 12.8 6 Sudeste 14 Sudeste 0 941.3 -- 71
2020-11-08 19:00:00 13.9 9 Sudeste 15 Este 0 941.2 -- 66
2020-11-08 18:00:00 15.3 3 Sudeste 15 Oeste 0 941.1 -- 62
2020-11-08 17:00:00 16.1 4 Sudoeste 16 Oeste 0 941.1 -- 55
2020-11-08 16:00:00 16.1 10 Oeste 19 Sudoeste 0 941 -- 54
2020-11-08 15:00:00 16.2 8 Sudeste 23 Sur 0 941.3 -- 59
2020-11-08 14:00:00 16 6 Sur 25 Sur 0 941.7 -- 60
2020-11-08 13:00:00 14.2 11 Sudeste -- -- 0 942.2 -- 70
2020-11-08 12:00:00 13.2 8 Sudeste 21 Sur 0 943.2 -- 78
2020-11-08 11:00:00 11 7 Sudeste 22 Este 0 943.3 -- 90
2020-11-08 10:00:00 6.6 9 Este 18 Este 0 943.2 -- 93
2020-11-08 09:00:00 5.2 6 Sudeste 17 Este 0 943.1 -- 92
2020-11-08 08:00:00 4.7 6 Sudeste 18 Este 0 942.8 -- 92
2020-11-08 07:00:00 5.1 6 Este 18 Este 0 942.6 -- 92
2020-11-08 06:00:00 5.4 9 Este 18 Este 0 942.5 -- 91
2020-11-08 05:00:00 6.2 8 Este 19 Este 0 942.4 -- 90
2020-11-08 04:00:00 6.9 8 Sudeste 21 Este 0 942.9 -- 88
2020-11-08 03:00:00 7.7 3 Sudeste 18 Este 0 943 -- 88
2020-11-08 02:00:00 8.7 5 Sur 11 Sudoeste 0 943.2 -- 87
2020-11-08 01:00:00 8.1 6 Este 21 Este 0 943.5 -- 85
2020-11-08 00:00:00 8.7 5 Sur 10 Sudeste 0 943.3 -- 86
2020-11-07 23:00:00 8.8 3 Sur 22 Este 0 943.3 -- 84
2020-11-07 22:00:00 9.8 0 Calma 11 Sudeste 0 943 -- 81
2020-11-07 21:00:00 10.4 5 Sudoeste 13 Sudeste 0 942.8 -- 81
2020-11-07 20:00:00 11.7 6 Sur -- -- 0 942.5 -- 78
2020-11-07 19:00:00 12.4 9 Sur -- -- 0 941.9 -- 74
2020-11-07 18:00:00 13.7 9 Sudoeste 33 Sudoeste 0 941.3 -- 68
2020-11-07 17:00:00 15.1 20 Sudoeste 37 Sudoeste 0 940.7 -- 60
2020-11-07 16:00:00 15.6 19 Oeste 42 Sudoeste 0 940.2 -- 62
2020-11-07 15:00:00 15.7 22 Sudoeste 48 Sudoeste 0 939.8 -- 64
2020-11-07 14:00:00 14.8 23 Sudoeste 37 Sur 0 939.5 -- 70
2020-11-07 13:00:00 15 24 Sudoeste 39 Sur 0 939.3 -- 72
2020-11-07 12:00:00 13.2 16 Sudoeste 35 Sudoeste 0 939.2 -- 79
2020-11-07 11:00:00 12.3 21 Sudoeste -- -- 0 938.5 -- 80
2020-11-07 10:00:00 10.9 4 Sudeste -- -- 0 937.6 -- 84
2020-11-07 09:00:00 11.2 17 Sur 38 Sur 0 936.2 -- 78
2020-11-07 08:00:00 10.7 6 Sur 18 Sudeste 0 935.7 -- 80
2020-11-07 07:00:00 11 6 Sur 33 Sudoeste 0 935 -- 82
2020-11-07 06:00:00 11.6 17 Sudoeste 41 Sudoeste 0.4 934.3 -- 80
2020-11-07 05:00:00 11.7 11 Sur 33 Sudeste 0 934.1 -- 87
2020-11-07 04:00:00 11.6 17 Sudeste -- -- 0 934 -- 88
2020-11-07 03:00:00 11.7 -- -- -- -- 1.2 934.4 -- 87
2020-11-07 02:00:00 12.1 18 Sur -- -- 3.8 936.1 -- 84
2020-11-07 01:00:00 13.6 -- -- -- -- 4.2 936.6 -- 87
2020-11-07 00:00:00 14.4 10 Sudeste 41 Este 0.4 936.4 -- 86
2020-11-06 23:00:00 14.7 19 Sudeste 45 Este 0 935.5 -- 84
2020-11-06 22:00:00 14.9 23 Este 43 Este 0 935.6 -- 85
2020-11-06 21:00:00 15.6 21 Este 46 Este 0 935.4 -- 81
2020-11-06 20:00:00 15.9 21 Sudeste 52 Este 0 935.3 -- 80
2020-11-06 19:00:00 16.4 24 Sudeste 63 Sudeste 0 934.2 -- 79
2020-11-06 18:00:00 16.8 35 Este 69 Este 0 933.7 -- 77
2020-11-06 17:00:00 17.5 22 Sudeste 59 Sudeste 0 934.9 -- 71
2020-11-06 16:00:00 18 31 Sudeste 65 Este 0 934 -- 68
2020-11-06 15:00:00 18.2 36 Sudeste 78 Sudeste 0 934 -- 67
2020-11-06 14:00:00 18.1 42 Sudeste 84 Este 0 934.8 -- 70
2020-11-06 13:00:00 16.9 44 Sudeste 93 Sudeste 0 935.4 -- 75
2020-11-06 12:00:00 15.9 39 Este 75 Este 0 936.4 -- 80
2020-11-06 11:00:00 15 38 Este 81 Este 0 936.7 -0.2 83
2020-11-06 10:00:00 14.4 42 Este 76 Este 0 936.7 -- 85
2020-11-06 09:00:00 13.8 34 Este 65 Este 0 936.7 -- 87
2020-11-06 08:00:00 13.3 35 Este 64 Este 0 936.9 -- 89
2020-11-06 07:00:00 12.5 17 Sudeste 42 Este 0 937.2 -- 90
2020-11-06 06:00:00 12.5 13 Sudeste 43 Este 0 937.5 -- 89
2020-11-06 05:00:00 12.1 18 Este 39 Sudeste 0 937.4 -- 90
2020-11-06 04:00:00 11.7 17 Sudeste 40 Sudeste 0 938 -- 90
2020-11-06 03:00:00 11.7 18 Sudeste 43 Sudeste 0 938.2 -- 90
2020-11-06 02:00:00 11.8 19 Sudeste 43 Sudeste 0 938 -- 89
2020-11-06 01:00:00 11.8 25 Este 43 Sudeste 0 937.9 -- 89
2020-11-06 00:00:00 11.6 17 Sudeste 35 Este 0 938 -- 90
2020-11-05 23:00:00 11.9 12 Sudeste 44 Sudeste 0 938.4 -- 90
2020-11-05 22:00:00 12.3 23 Sudeste 61 Este 0 937.8 -- 90
2020-11-05 21:00:00 12.6 28 Este 49 Sudeste 0 937.4 -- 88
2020-11-05 20:00:00 12.3 13 Sudeste 41 Este 0 937.1 -- 87
2020-11-05 19:00:00 12.6 17 Sudeste 57 Este 0 936.6 -- 85
2020-11-05 18:00:00 13 34 Este 66 Este 0 936 -- 85
2020-11-05 17:00:00 13.5 38 Este 68 Este 0 936.2 -- 84
2020-11-05 16:00:00 12.6 30 Este 55 Este 0.2 936.4 -- 89
2020-11-05 15:00:00 11.5 30 Este 58 Este 1.6 937 -- 87
2020-11-05 14:00:00 12 19 Sudeste 60 Este 0.4 937.5 -- 86
2020-11-05 13:00:00 12.3 40 Este 64 Este 0 937.4 -- 84
2020-11-05 12:00:00 12.4 34 Este 66 Este 0 938.3 -- 84
2020-11-05 11:00:00 12.7 33 Este 75 Sudeste 0 938.3 -- 83
2020-11-05 10:00:00 11.9 44 Este 85 Este 0 937.7 -- 86
2020-11-05 09:00:00 11.6 44 Este 81 Este 0 937.4 -- 87
2020-11-05 08:00:00 11.2 44 Este 74 Este 0 937 -- 87
2020-11-05 07:00:00 11 49 Este 84 Este 0.4 936.5 -- 87
2020-11-05 06:00:00 11 39 Este 62 Este 0.4 936.6 -- 85
2020-11-05 05:00:00 10.8 25 Este 66 Este 0.6 937.2 -- 86
2020-11-05 04:00:00 11 37 Este 81 Este 0 937.3 -- 84
2020-11-05 03:00:00 11 42 Este 66 Este 0 936.7 -- 86
2020-11-05 02:00:00 10.7 38 Este 65 Este 0 937 -- 88
2020-11-05 01:00:00 10.6 33 Este 66 Este 0 937.4 -- 88
2020-11-05 00:00:00 10.5 40 Este 76 Este 0 937.2 -- 88